createdAt,value
2024-02-02T00:00:16.708Z,-2.06
2024-02-02T00:02:43.624Z,-2.05
2024-02-02T00:05:10.548Z,-2.04
2024-02-02T00:07:39.584Z,-2.08
2024-02-02T00:10:06.678Z,-2.07
2024-02-02T00:12:33.451Z,-2.03
2024-02-02T00:15:00.595Z,-2.02
2024-02-02T00:17:27.365Z,-2.02
2024-02-02T00:19:54.211Z,-1.99
2024-02-02T00:22:22.215Z,-2.03
2024-02-02T00:24:49.071Z,-1.98
2024-02-02T00:27:16.619Z,-1.98
2024-02-02T00:29:47.595Z,-2.01
2024-02-02T00:32:15.165Z,-1.94
2024-02-02T00:34:43.571Z,-1.95
2024-02-02T00:37:10.474Z,-1.92
2024-02-02T00:39:39.129Z,-1.89
2024-02-02T00:42:05.919Z,-1.91
2024-02-02T00:44:32.618Z,-1.83
2024-02-02T00:46:59.270Z,-1.84
2024-02-02T00:49:26.085Z,-1.89
2024-02-02T00:51:53.067Z,-1.91
2024-02-02T00:54:19.934Z,-1.95
2024-02-02T00:56:47.342Z,-2.00
2024-02-02T00:59:14.194Z,-1.97
2024-02-02T01:01:41.150Z,-1.98
2024-02-02T01:04:08.253Z,-1.94
2024-02-02T01:06:35.965Z,-1.91
2024-02-02T01:09:02.876Z,-2.12
2024-02-02T01:11:30.172Z,-2.01
2024-02-02T01:13:57.211Z,-2.01
2024-02-02T01:16:24.575Z,-1.98
2024-02-02T01:18:51.476Z,-1.93
2024-02-02T01:21:18.455Z,-1.86
2024-02-02T01:23:45.143Z,-1.90
2024-02-02T01:26:14.429Z,-1.83
2024-02-02T01:28:41.242Z,-1.86
2024-02-02T01:31:08.010Z,-1.88
2024-02-02T01:33:34.924Z,-1.92
2024-02-02T01:36:01.830Z,-2.00
2024-02-02T01:38:28.669Z,-2.10
2024-02-02T01:40:55.483Z,-1.93
2024-02-02T01:43:24.841Z,-2.04
2024-02-02T01:45:52.336Z,-1.94
2024-02-02T01:48:19.667Z,-1.86
2024-02-02T01:50:46.677Z,-1.88
2024-02-02T01:53:13.622Z,-1.88
2024-02-02T01:55:40.581Z,-1.80
2024-02-02T01:58:07.429Z,-1.93
2024-02-02T02:00:34.547Z,-1.96
2024-02-02T02:03:01.740Z,-2.10
2024-02-02T02:05:28.712Z,-1.97
2024-02-02T02:07:55.591Z,-1.92
2024-02-02T02:10:25.606Z,-1.93
2024-02-02T02:12:52.662Z,-2.00
2024-02-02T02:15:19.749Z,-2.01
2024-02-02T02:17:49.463Z,-1.95
2024-02-02T02:20:22.633Z,-1.89
2024-02-02T02:22:50.354Z,-1.87
2024-02-02T02:25:17.320Z,-1.85
2024-02-02T02:27:45.588Z,-1.92
2024-02-02T02:30:13.541Z,-1.92
2024-02-02T02:32:40.546Z,-1.88
2024-02-02T02:35:07.820Z,-1.77
2024-02-02T02:37:34.591Z,-1.68
2024-02-02T02:40:01.361Z,-1.66
2024-02-02T02:42:30.870Z,-1.74
2024-02-02T02:44:57.979Z,-1.84
2024-02-02T02:47:24.710Z,-1.75
2024-02-02T02:49:51.533Z,-1.65
2024-02-02T02:52:19.323Z,-1.71
2024-02-02T02:54:46.031Z,-1.69
2024-02-02T02:57:12.904Z,-1.63
2024-02-02T02:59:39.681Z,-1.64
2024-02-02T03:02:06.354Z,-1.57
2024-02-02T03:04:33.185Z,-1.56
2024-02-02T03:07:00.227Z,-1.57
2024-02-02T03:09:27.186Z,-1.66
2024-02-02T03:11:54.218Z,-1.70
2024-02-02T03:14:21.124Z,-1.60
2024-02-02T03:16:47.973Z,-1.56
2024-02-02T03:19:15.590Z,-1.47
2024-02-02T03:21:42.368Z,-1.38
2024-02-02T03:24:12.076Z,-1.33
2024-02-02T03:26:39.106Z,-1.37
2024-02-02T03:29:05.892Z,-1.29
2024-02-02T03:31:32.539Z,-1.28
2024-02-02T03:33:59.377Z,-1.28
2024-02-02T03:36:26.335Z,-1.22
2024-02-02T03:38:53.178Z,-1.21
2024-02-02T03:41:19.948Z,-1.22
2024-02-02T03:43:50.136Z,-1.25
2024-02-02T03:46:16.980Z,-1.31
2024-02-02T03:48:43.847Z,-1.23
2024-02-02T03:51:10.750Z,-1.25
2024-02-02T03:53:37.618Z,-1.27
2024-02-02T03:56:04.600Z,-1.23
2024-02-02T03:58:31.416Z,-1.16
2024-02-02T04:00:58.321Z,-1.14
2024-02-02T04:03:25.580Z,-1.11
2024-02-02T04:05:52.535Z,-1.18
2024-02-02T04:08:19.298Z,-1.16
2024-02-02T04:10:46.138Z,-1.09
2024-02-02T04:13:12.961Z,-1.09
2024-02-02T04:15:41.033Z,-1.12
2024-02-02T04:18:10.704Z,-1.27
2024-02-02T04:20:37.530Z,-1.19
2024-02-02T04:23:04.419Z,-1.18
2024-02-02T04:25:31.198Z,-1.34
2024-02-02T04:28:04.494Z,-1.31
2024-02-02T04:30:31.869Z,-1.23
2024-02-02T04:32:58.877Z,-1.25
2024-02-02T04:35:25.807Z,-1.24
2024-02-02T04:37:52.523Z,-1.26
2024-02-02T04:40:19.338Z,-1.32
2024-02-02T04:42:46.067Z,-1.22
2024-02-02T04:45:13.154Z,-1.21
2024-02-02T04:47:39.874Z,-1.22
2024-02-02T04:50:06.628Z,-1.24
2024-02-02T04:52:33.410Z,-1.19
2024-02-02T04:55:00.176Z,-1.15
2024-02-02T04:57:27.055Z,-1.21
2024-02-02T04:59:55.708Z,-1.22
2024-02-02T05:02:22.468Z,-1.19
2024-02-02T05:04:49.282Z,-1.16
2024-02-02T05:07:16.059Z,-1.19
2024-02-02T05:09:42.778Z,-1.16
2024-02-02T05:12:38.356Z,-1.15
2024-02-02T05:15:06.648Z,-1.09
2024-02-02T05:17:33.680Z,-1.06
2024-02-02T05:20:00.656Z,-1.16
2024-02-02T05:22:27.340Z,-1.17
2024-02-02T05:24:54.057Z,-1.11
2024-02-02T05:27:20.855Z,-1.22
2024-02-02T05:29:49.884Z,-1.16
2024-02-02T05:32:16.643Z,-1.07
2024-02-02T05:34:43.961Z,-1.49
2024-02-02T05:37:11.210Z,-1.17
2024-02-02T05:39:38.000Z,-1.07
2024-02-02T05:42:05.362Z,-1.02
2024-02-02T05:44:32.242Z,-0.96
2024-02-02T05:46:58.961Z,-0.99
2024-02-02T05:49:25.969Z,-1.01
2024-02-02T05:51:54.244Z,-0.94
2024-02-02T05:54:21.107Z,-0.89
2024-02-02T05:56:47.978Z,-0.86
2024-02-02T05:59:14.779Z,-0.90
2024-02-02T06:01:41.696Z,-0.83
2024-02-02T06:04:11.068Z,-0.80
2024-02-02T06:06:44.960Z,-0.83
2024-02-02T06:09:12.686Z,-0.87
2024-02-02T06:11:39.875Z,-0.91
2024-02-02T06:14:06.927Z,-0.96
2024-02-02T06:16:33.957Z,-0.91
2024-02-02T06:19:01.067Z,-0.79
2024-02-02T06:21:27.969Z,-0.75
2024-02-02T06:23:54.756Z,-0.76
2024-02-02T06:26:21.571Z,-0.71
2024-02-02T06:28:48.464Z,-0.81
2024-02-02T06:31:15.351Z,-1.05
2024-02-02T06:33:42.726Z,-0.82
2024-02-02T06:36:12.351Z,-0.76
2024-02-02T06:38:42.716Z,-0.70
2024-02-02T06:41:12.364Z,-0.92
2024-02-02T06:43:49.972Z,-0.84
2024-02-02T06:46:31.831Z,-0.84
2024-02-02T06:49:02.495Z,-0.85
2024-02-02T06:51:29.662Z,-0.69
2024-02-02T06:53:58.408Z,-0.67
2024-02-02T06:56:39.925Z,-0.71
2024-02-02T06:59:13.265Z,-0.61
2024-02-02T07:01:42.071Z,-0.61
2024-02-02T07:04:13.807Z,-0.54
2024-02-02T07:06:41.886Z,-0.70
2024-02-02T07:09:21.201Z,-0.52
2024-02-02T07:12:03.655Z,-0.55
2024-02-02T07:14:45.612Z,-0.50
2024-02-02T07:17:25.394Z,-0.51
2024-02-02T07:19:52.977Z,-0.62
2024-02-02T07:22:42.886Z,-0.42
2024-02-02T07:25:12.790Z,-0.32
2024-02-02T07:28:06.394Z,-0.38
2024-02-02T07:30:45.594Z,-0.31
2024-02-02T07:33:36.863Z,-0.33
2024-02-02T07:36:05.511Z,-0.27
2024-02-02T07:38:47.509Z,-0.35
2024-02-02T07:41:18.541Z,-0.42
2024-02-02T07:43:46.248Z,-0.17
2024-02-02T07:46:15.910Z,-0.01
2024-02-02T07:48:44.619Z,-0.13
2024-02-02T07:51:12.804Z,0.07
2024-02-02T07:53:40.169Z,-0.02
2024-02-02T07:56:07.335Z,-0.03
2024-02-02T07:58:34.015Z,-0.07
2024-02-02T08:01:00.828Z,0.22
2024-02-02T08:03:28.131Z,-0.02
2024-02-02T08:05:55.131Z,0.20
2024-02-02T08:08:22.060Z,0.27
2024-02-02T08:10:48.882Z,0.60
2024-02-02T08:13:17.283Z,0.55
2024-02-02T08:15:44.559Z,0.68
2024-02-02T08:18:14.639Z,0.83
2024-02-02T08:20:41.735Z,0.63
2024-02-02T08:23:08.428Z,0.72
2024-02-02T08:25:35.282Z,0.85
2024-02-02T08:28:02.865Z,1.06
2024-02-02T08:30:29.786Z,1.08
2024-02-02T08:32:57.084Z,0.97
2024-02-02T08:35:26.405Z,0.82
2024-02-02T08:38:01.673Z,0.87
2024-02-02T08:40:48.900Z,1.06
2024-02-02T08:43:24.122Z,1.00
2024-02-02T08:46:12.482Z,1.15
2024-02-02T08:48:49.928Z,1.14
2024-02-02T08:51:28.551Z,1.07
2024-02-02T08:54:07.496Z,1.18
2024-02-02T08:56:34.479Z,1.24
2024-02-02T08:59:01.337Z,1.35
2024-02-02T09:01:31.240Z,1.34
2024-02-02T09:04:00.292Z,1.56
2024-02-02T09:06:45.427Z,1.45
2024-02-02T09:09:15.963Z,1.57
2024-02-02T09:11:48.736Z,1.84
2024-02-02T09:14:19.380Z,1.91
2024-02-02T09:16:51.618Z,1.96
2024-02-02T09:19:25.648Z,1.85
2024-02-02T09:21:52.880Z,2.18
2024-02-02T09:24:30.751Z,2.21
2024-02-02T09:26:59.339Z,2.20
2024-02-02T09:29:26.456Z,2.22
2024-02-02T09:31:53.209Z,1.93
2024-02-02T09:34:25.937Z,2.16
2024-02-02T09:36:54.533Z,2.15
2024-02-02T09:40:07.010Z,2.22
2024-02-02T09:42:47.687Z,2.27
2024-02-02T09:45:42.914Z,2.47
2024-02-02T09:48:33.674Z,2.37
2024-02-02T09:51:11.787Z,2.35
2024-02-02T09:54:17.010Z,2.62
2024-02-02T09:57:18.324Z,2.71
2024-02-02T09:59:55.820Z,2.43
2024-02-02T10:02:34.616Z,2.37
2024-02-02T10:05:23.862Z,2.63
2024-02-02T10:08:06.191Z,2.74
2024-02-02T10:10:51.733Z,2.64
2024-02-02T10:13:21.620Z,2.91
2024-02-02T10:16:33.557Z,2.88
2024-02-02T10:19:33.076Z,2.87
2024-02-02T10:22:12.097Z,2.75
2024-02-02T10:24:50.987Z,2.81
2024-02-02T10:27:49.118Z,2.89
2024-02-02T10:30:15.932Z,3.35
2024-02-02T10:33:24.116Z,3.40
2024-02-02T10:36:06.304Z,3.54
2024-02-02T10:38:38.671Z,3.65
2024-02-02T10:42:13.404Z,3.32
2024-02-02T10:44:55.113Z,3.69
2024-02-02T10:47:25.861Z,3.85
2024-02-02T10:50:24.927Z,3.58
2024-02-02T10:53:39.932Z,3.21
2024-02-02T10:56:23.558Z,3.07
2024-02-02T10:59:09.402Z,3.07
2024-02-02T11:01:55.953Z,3.29
2024-02-02T11:04:38.337Z,3.47
2024-02-02T11:07:17.412Z,3.28
2024-02-02T11:10:06.610Z,3.15
2024-02-02T11:12:58.809Z,3.39
2024-02-02T11:15:37.789Z,3.56
2024-02-02T11:29:12.420Z,3.19
2024-02-02T11:31:51.605Z,3.30
2024-02-02T11:34:44.162Z,3.54
2024-02-02T11:37:40.700Z,3.47
2024-02-02T11:40:13.637Z,3.67
2024-02-02T11:42:41.933Z,3.70
2024-02-02T11:45:14.936Z,3.82
2024-02-02T11:47:54.288Z,3.83
2024-02-02T11:50:29.992Z,3.93
2024-02-02T11:53:24.050Z,3.80
2024-02-02T11:55:56.769Z,3.76
2024-02-02T11:58:25.299Z,3.79
2024-02-02T12:01:07.142Z,3.92
2024-02-02T12:03:51.187Z,3.75
2024-02-02T12:06:20.743Z,4.13
2024-02-02T12:09:13.394Z,3.96
2024-02-02T12:11:44.507Z,4.24
2024-02-02T12:14:40.750Z,3.69
2024-02-02T12:17:12.294Z,3.86
2024-02-02T12:19:39.254Z,4.20
2024-02-02T12:22:06.170Z,4.14
2024-02-02T12:24:33.103Z,4.33
2024-02-02T12:27:00.629Z,4.47
2024-02-02T12:29:48.784Z,4.09
2024-02-02T12:32:15.742Z,4.01
2024-02-02T12:34:43.074Z,4.17
2024-02-02T12:37:11.303Z,4.17
2024-02-02T12:39:38.696Z,4.26
2024-02-02T12:42:07.815Z,4.10
2024-02-02T12:44:34.844Z,4.25
2024-02-02T12:47:01.839Z,4.13
2024-02-02T12:49:28.803Z,4.22
2024-02-02T12:51:57.709Z,4.51
2024-02-02T12:54:25.154Z,4.20
2024-02-02T12:56:52.157Z,4.32
2024-02-02T12:59:41.231Z,4.39
2024-02-02T13:02:08.302Z,4.64
2024-02-02T13:04:35.191Z,4.61
2024-02-02T13:07:02.248Z,4.67
2024-02-02T13:09:33.264Z,4.60
2024-02-02T13:12:01.907Z,4.57
2024-02-02T13:14:33.768Z,4.61
2024-02-02T13:17:06.179Z,4.51
2024-02-02T13:19:37.761Z,4.31
2024-02-02T13:22:04.752Z,4.56
2024-02-02T13:24:32.485Z,4.64
2024-02-02T13:27:06.618Z,4.60
2024-02-02T13:29:39.692Z,4.54
2024-02-02T13:32:17.600Z,4.63
2024-02-02T13:34:44.793Z,4.49
2024-02-02T13:37:25.913Z,4.57
2024-02-02T13:39:58.532Z,4.48
2024-02-02T13:42:25.968Z,4.47
2024-02-02T13:44:54.106Z,4.44
2024-02-02T13:47:22.071Z,4.65
2024-02-02T13:49:54.195Z,4.34
2024-02-02T13:52:21.104Z,4.47
2024-02-02T13:54:48.411Z,4.41
2024-02-02T13:57:16.799Z,4.45
2024-02-02T13:59:44.816Z,4.49
2024-02-02T14:02:11.518Z,4.71
2024-02-02T14:04:40.307Z,4.54
2024-02-02T14:07:17.237Z,4.65
2024-02-02T14:09:44.235Z,4.45
2024-02-02T14:12:12.157Z,4.48
2024-02-02T14:14:39.055Z,4.50
2024-02-02T14:17:06.864Z,4.59
2024-02-02T14:19:34.908Z,4.84
2024-02-02T14:22:09.455Z,4.72
2024-02-02T14:24:51.395Z,4.76
2024-02-02T14:27:18.744Z,4.91
2024-02-02T14:29:45.963Z,4.84
2024-02-02T14:32:15.076Z,4.97
2024-02-02T14:34:42.081Z,5.00
2024-02-02T14:37:10.004Z,4.99
2024-02-02T14:39:37.137Z,4.85
2024-02-02T14:42:04.955Z,4.60
2024-02-02T14:44:32.034Z,4.56
2024-02-02T14:47:03.049Z,4.43
2024-02-02T14:49:30.325Z,4.20
2024-02-02T14:51:57.319Z,4.25
2024-02-02T14:54:25.042Z,4.16
2024-02-02T14:56:53.057Z,4.16
2024-02-02T14:59:30.365Z,4.07
2024-02-02T15:01:58.013Z,4.15
2024-02-02T15:04:25.191Z,4.03
2024-02-02T15:06:53.031Z,4.21
2024-02-02T15:09:20.822Z,4.06
2024-02-02T15:11:48.086Z,4.09
2024-02-02T15:14:15.900Z,4.11
2024-02-02T15:16:42.855Z,4.13
2024-02-02T15:19:10.356Z,3.83
2024-02-02T15:21:39.485Z,3.80
2024-02-02T15:24:06.841Z,4.02
2024-02-02T15:26:38.671Z,4.00
2024-02-02T15:29:05.913Z,4.07
2024-02-02T15:31:34.133Z,4.02
2024-02-02T15:34:05.108Z,4.04
2024-02-02T15:36:34.665Z,4.07
2024-02-02T15:39:15.309Z,3.87
2024-02-02T15:41:48.447Z,3.94
2024-02-02T15:44:15.321Z,3.85
2024-02-02T15:46:42.355Z,3.83
2024-02-02T15:49:09.991Z,3.82
2024-02-02T15:51:37.162Z,3.76
2024-02-02T15:54:06.605Z,3.79
2024-02-02T15:56:33.439Z,3.92
2024-02-02T15:59:02.310Z,3.87
2024-02-02T16:01:29.224Z,3.86
2024-02-02T16:03:56.354Z,3.66
2024-02-02T16:06:23.322Z,3.63
2024-02-02T16:08:52.341Z,3.78
2024-02-02T16:11:20.623Z,3.84
2024-02-02T16:13:47.861Z,3.77
2024-02-02T16:16:14.885Z,3.50
2024-02-02T16:18:41.786Z,3.67
2024-02-02T16:21:08.757Z,3.80
2024-02-02T16:23:36.607Z,3.67
2024-02-02T16:26:03.968Z,3.64
2024-02-02T16:28:31.230Z,3.62
2024-02-02T16:30:58.154Z,3.67
2024-02-02T16:33:25.134Z,3.70
2024-02-02T16:35:52.044Z,3.45
2024-02-02T16:38:18.867Z,3.52
2024-02-02T16:40:45.698Z,3.51
2024-02-02T16:43:12.494Z,3.51
2024-02-02T16:45:41.437Z,3.29
2024-02-02T16:48:09.441Z,3.23
2024-02-02T16:50:39.157Z,3.27
2024-02-02T16:53:07.137Z,3.32
2024-02-02T16:55:34.130Z,3.35
2024-02-02T16:58:01.288Z,3.14
2024-02-02T17:00:28.312Z,3.12
2024-02-02T17:02:55.578Z,3.14
2024-02-02T17:05:22.550Z,2.98
2024-02-02T17:07:49.557Z,3.01
2024-02-02T17:10:16.392Z,3.03
2024-02-02T17:12:43.542Z,3.22
2024-02-02T17:15:18.469Z,3.10
2024-02-02T17:17:47.907Z,3.12
2024-02-02T17:20:16.908Z,3.13
2024-02-02T17:22:45.447Z,2.89
2024-02-02T17:25:12.325Z,3.03
2024-02-02T17:27:39.221Z,3.02
2024-02-02T17:30:06.699Z,3.02
2024-02-02T17:32:38.708Z,3.13
2024-02-02T17:35:07.556Z,3.08
2024-02-02T17:37:34.572Z,3.06
2024-02-02T17:40:01.460Z,3.06
2024-02-02T17:42:28.245Z,3.07
2024-02-02T17:44:55.031Z,3.23
2024-02-02T17:47:22.396Z,3.23
2024-02-02T17:49:51.985Z,3.21
2024-02-02T17:52:19.536Z,3.19
2024-02-02T17:54:46.488Z,3.14
2024-02-02T17:57:13.609Z,3.03
2024-02-02T17:59:40.716Z,2.87
2024-02-02T18:02:08.837Z,2.99
2024-02-02T18:04:35.743Z,2.95
2024-02-02T18:07:02.592Z,2.92
2024-02-02T18:09:29.290Z,2.93
2024-02-02T18:11:56.056Z,2.97
2024-02-02T18:14:24.961Z,2.93
2024-02-02T18:16:51.801Z,2.98
2024-02-02T18:19:18.688Z,3.11
2024-02-02T18:21:45.691Z,2.76
2024-02-02T18:24:12.771Z,2.88
2024-02-02T18:26:39.666Z,2.78
2024-02-02T18:29:06.739Z,2.98
2024-02-02T18:31:33.590Z,2.90
2024-02-02T18:34:00.709Z,2.88
2024-02-02T18:36:27.928Z,2.81
2024-02-02T18:38:54.770Z,3.04
2024-02-02T18:41:27.565Z,3.07
2024-02-02T18:43:54.377Z,2.99
2024-02-02T18:46:26.174Z,2.92
2024-02-02T18:51:37.925Z,3.03
2024-02-02T18:54:05.131Z,3.09
2024-02-02T18:56:32.460Z,3.07
2024-02-02T18:58:59.196Z,3.09
2024-02-02T19:01:30.596Z,3.10
2024-02-02T19:03:57.351Z,3.21
2024-02-02T19:06:24.205Z,3.08
2024-02-02T19:08:51.218Z,3.05
2024-02-02T19:11:24.818Z,3.03
2024-02-02T19:13:51.720Z,3.07
2024-02-02T19:16:23.085Z,3.02
2024-02-02T19:18:50.862Z,3.14
2024-02-02T19:21:22.484Z,2.92
2024-02-02T19:23:50.151Z,3.04
2024-02-02T19:26:17.874Z,2.94
2024-02-02T19:28:45.296Z,2.94
2024-02-02T19:31:25.784Z,2.89
2024-02-02T19:33:53.201Z,3.06
2024-02-02T19:36:27.547Z,3.00
2024-02-02T19:38:55.736Z,2.90
2024-02-02T19:41:24.330Z,3.00
2024-02-02T19:43:51.978Z,2.99
2024-02-02T19:46:29.113Z,3.07
2024-02-02T19:48:57.241Z,2.83
2024-02-02T19:51:26.242Z,2.63
2024-02-02T19:53:53.727Z,2.71
2024-02-02T19:56:20.507Z,2.95
2024-02-02T19:58:48.387Z,2.73
2024-02-02T20:01:19.642Z,3.02
2024-02-02T20:03:48.444Z,2.98
2024-02-02T20:06:17.650Z,3.02
2024-02-02T20:08:46.019Z,3.19
2024-02-02T20:11:17.519Z,3.15
2024-02-02T20:13:45.067Z,3.10
2024-02-02T20:16:16.730Z,3.18
2024-02-02T20:18:43.925Z,3.33
2024-02-02T20:21:18.056Z,3.31
2024-02-02T20:23:45.735Z,3.25
2024-02-02T20:26:18.368Z,3.35
2024-02-02T20:28:46.312Z,3.25
2024-02-02T20:31:13.168Z,3.47
2024-02-02T20:33:40.034Z,3.30
2024-02-02T20:36:07.677Z,3.31
2024-02-02T20:38:34.907Z,3.41
2024-02-02T20:41:06.047Z,3.46
2024-02-02T20:43:33.156Z,3.34
2024-02-02T20:46:00.039Z,3.38
2024-02-02T20:48:26.833Z,3.27
2024-02-02T20:50:53.979Z,3.39
2024-02-02T20:53:20.647Z,3.39
2024-02-02T20:55:47.354Z,3.33
2024-02-02T20:58:14.142Z,3.46
2024-02-02T21:00:41.088Z,3.41
2024-02-02T21:03:09.264Z,3.37
2024-02-02T21:05:36.698Z,3.39
2024-02-02T21:08:04.528Z,3.37
2024-02-02T21:10:32.075Z,3.41
2024-02-02T21:12:59.294Z,3.45
2024-02-02T21:15:30.026Z,3.41
2024-02-02T21:17:58.143Z,3.44
2024-02-02T21:20:32.104Z,3.39
2024-02-02T21:22:58.916Z,3.28
2024-02-02T21:25:25.685Z,3.44
2024-02-02T21:27:52.645Z,3.35
2024-02-02T21:30:19.518Z,3.47
2024-02-02T21:32:46.290Z,3.42
2024-02-02T21:35:13.756Z,3.45
2024-02-02T21:37:40.528Z,3.21
2024-02-02T21:40:07.678Z,3.47
2024-02-02T21:42:34.446Z,3.28
2024-02-02T21:45:01.139Z,3.38
2024-02-02T21:47:27.868Z,3.45
2024-02-02T21:49:54.773Z,3.53
2024-02-02T21:52:21.689Z,3.42
2024-02-02T21:54:48.535Z,3.30
2024-02-02T21:57:15.360Z,3.32
2024-02-02T21:59:42.052Z,3.36
2024-02-02T22:02:08.784Z,3.41
2024-02-02T22:04:35.469Z,3.27
2024-02-02T22:07:04.507Z,3.42
2024-02-02T22:09:31.659Z,3.45
2024-02-02T22:11:58.510Z,3.35
2024-02-02T22:14:25.782Z,3.36
2024-02-02T22:16:52.474Z,3.48
2024-02-02T22:19:19.257Z,3.36
2024-02-02T22:21:47.190Z,3.37
2024-02-02T22:24:14.425Z,3.26
2024-02-02T22:26:41.093Z,3.23
2024-02-02T22:29:07.747Z,3.44
2024-02-02T22:31:35.533Z,3.44
2024-02-02T22:34:03.051Z,3.39
2024-02-02T22:36:32.991Z,3.46
2024-02-02T22:38:59.717Z,3.43
2024-02-02T22:41:33.451Z,3.38
2024-02-02T22:44:02.584Z,3.39
2024-02-02T22:46:34.143Z,3.26
2024-02-02T22:49:01.761Z,3.28
2024-02-02T22:51:28.687Z,3.26
2024-02-02T22:53:55.341Z,3.32
2024-02-02T22:56:21.954Z,3.17
2024-02-02T22:58:48.706Z,3.11
2024-02-02T23:01:15.534Z,3.31
2024-02-02T23:03:42.765Z,3.18
2024-02-02T23:06:09.650Z,3.25
2024-02-02T23:08:36.429Z,3.29
2024-02-02T23:11:03.366Z,3.17
2024-02-02T23:13:30.060Z,3.14
2024-02-02T23:15:59.197Z,3.34
2024-02-02T23:18:27.596Z,3.25
2024-02-02T23:20:59.331Z,3.22
2024-02-02T23:23:26.902Z,3.25
2024-02-02T23:25:53.722Z,3.26
2024-02-02T23:28:20.404Z,3.34
2024-02-02T23:30:47.419Z,3.49
2024-02-02T23:33:14.473Z,3.34
2024-02-02T23:35:42.524Z,3.42
2024-02-02T23:38:09.463Z,3.33
2024-02-02T23:40:36.301Z,3.42
2024-02-02T23:43:03.132Z,3.45
2024-02-02T23:45:30.430Z,3.45
2024-02-02T23:47:57.253Z,3.28
2024-02-02T23:50:23.942Z,3.20
2024-02-02T23:52:50.638Z,3.37
2024-02-02T23:55:17.475Z,3.29
2024-02-02T23:57:44.549Z,3.29
